createdAt,value
2022-11-11T00:00:21.786Z,1.72
2022-11-11T00:00:53.456Z,1.72
2022-11-11T00:01:25.479Z,1.72
2022-11-11T00:01:57.305Z,1.72
2022-11-11T00:02:29.468Z,1.77
2022-11-11T00:03:01.423Z,1.77
2022-11-11T00:03:33.586Z,1.77
2022-11-11T00:03:49.392Z,1.77
2022-11-11T00:04:33.218Z,1.72
2022-11-11T00:05:05.710Z,1.72
2022-11-11T00:05:37.122Z,1.72
2022-11-11T00:06:09.083Z,1.72
2022-11-11T00:06:41.190Z,1.72
2022-11-11T00:07:13.155Z,1.72
2022-11-11T00:07:45.508Z,1.72
2022-11-11T00:08:16.901Z,1.72
2022-11-11T00:08:49.072Z,1.72
2022-11-11T00:09:21.035Z,1.72
2022-11-11T00:09:53.017Z,1.77
2022-11-11T00:10:25.352Z,1.77
2022-11-11T00:10:56.864Z,1.77
2022-11-11T00:11:28.935Z,1.77
2022-11-11T00:12:00.964Z,1.77
2022-11-11T00:12:32.836Z,1.77
2022-11-11T00:12:49.000Z,1.77
2022-11-11T00:13:21.110Z,1.77
2022-11-11T00:13:36.831Z,1.77
2022-11-11T00:14:08.906Z,1.77
2022-11-11T00:14:40.639Z,1.77
2022-11-11T00:15:13.756Z,1.77
2022-11-11T00:15:45.165Z,1.77
2022-11-11T00:16:16.684Z,1.77
2022-11-11T00:16:48.648Z,1.77
2022-11-11T00:17:04.986Z,1.77
2022-11-11T00:17:36.684Z,1.77
2022-11-11T00:18:20.930Z,1.77
2022-11-11T00:18:52.683Z,1.77
2022-11-11T00:19:24.723Z,1.77
2022-11-11T00:19:56.633Z,1.77
2022-11-11T00:20:31.189Z,1.77
2022-11-11T00:21:00.782Z,1.77
2022-11-11T00:21:32.446Z,1.77
2022-11-11T00:21:48.674Z,1.77
2022-11-11T00:22:32.391Z,1.88
2022-11-11T00:23:04.703Z,1.88
2022-11-11T00:23:36.397Z,1.77
2022-11-11T00:24:08.221Z,1.77
2022-11-11T00:24:40.304Z,1.77
2022-11-11T00:25:12.585Z,1.72
2022-11-11T00:25:44.745Z,1.72
2022-11-11T00:26:38.514Z,1.72
2022-11-11T00:26:48.442Z,1.72
2022-11-11T00:27:20.243Z,1.77
2022-11-11T00:27:52.241Z,1.77
2022-11-11T00:28:24.769Z,1.77
2022-11-11T00:28:56.197Z,1.77
2022-11-11T00:29:28.208Z,1.77
2022-11-11T00:30:00.803Z,1.77
2022-11-11T00:30:31.993Z,1.77
2022-11-11T00:30:48.501Z,1.77
2022-11-11T00:31:20.212Z,1.77
2022-11-11T00:32:05.039Z,1.88
2022-11-11T00:32:36.224Z,1.88
2022-11-11T00:33:07.990Z,1.88
2022-11-11T00:33:40.015Z,1.88
2022-11-11T00:34:11.989Z,1.88
2022-11-11T00:34:44.393Z,1.77
2022-11-11T00:35:16.399Z,1.77
2022-11-11T00:35:48.169Z,1.77
2022-11-11T00:36:19.918Z,1.77
2022-11-11T00:36:52.169Z,1.72
2022-11-11T00:37:23.995Z,1.72
2022-11-11T00:37:55.841Z,1.72
2022-11-11T00:38:27.948Z,1.72
2022-11-11T00:38:59.856Z,1.72
2022-11-11T00:39:31.723Z,1.72
2022-11-11T00:39:47.857Z,1.72
2022-11-11T00:40:31.782Z,1.72
2022-11-11T00:41:04.286Z,1.72
2022-11-11T00:41:35.725Z,1.72
2022-11-11T00:42:07.565Z,1.61
2022-11-11T00:42:39.669Z,1.61
2022-11-11T00:43:11.643Z,1.61
2022-11-11T00:43:43.635Z,1.61
2022-11-11T00:44:15.788Z,1.61
2022-11-11T00:44:47.625Z,1.61
2022-11-11T00:45:19.857Z,1.72
2022-11-11T00:45:51.609Z,1.72
2022-11-11T00:46:23.449Z,1.72
2022-11-11T00:46:55.695Z,1.72
2022-11-11T00:47:27.419Z,1.77
2022-11-11T00:47:59.518Z,1.77
2022-11-11T00:48:31.342Z,1.77
2022-11-11T00:48:47.507Z,1.77
2022-11-11T00:49:19.601Z,1.77
2022-11-11T00:50:04.773Z,1.77
2022-11-11T00:50:35.581Z,1.77
2022-11-11T00:51:07.268Z,1.77
2022-11-11T00:51:39.158Z,1.77
2022-11-11T00:52:11.231Z,1.77
2022-11-11T00:52:43.305Z,1.77
2022-11-11T00:53:15.609Z,1.77
2022-11-11T00:53:47.043Z,1.77
2022-11-11T00:54:19.260Z,1.77
2022-11-11T00:54:51.190Z,1.77
2022-11-11T00:55:23.300Z,1.77
2022-11-11T00:55:55.405Z,1.77
2022-11-11T00:56:27.105Z,1.77
2022-11-11T00:56:59.123Z,1.77
2022-11-11T00:57:30.915Z,1.77
2022-11-11T00:57:47.085Z,1.77
2022-11-11T00:58:31.102Z,1.77
2022-11-11T00:59:03.453Z,1.77
2022-11-11T00:59:35.113Z,1.77
2022-11-11T01:00:07.940Z,1.77
2022-11-11T01:00:38.927Z,1.88
2022-11-11T01:01:10.922Z,1.88
2022-11-11T01:01:42.976Z,1.88
2022-11-11T01:02:15.054Z,1.88
2022-11-11T01:02:46.813Z,1.88
2022-11-11T01:03:03.566Z,1.88
2022-11-11T01:03:46.764Z,1.88
2022-11-11T01:04:18.814Z,1.88
2022-11-11T01:04:50.578Z,1.88
2022-11-11T01:05:22.853Z,1.88
2022-11-11T01:05:55.255Z,1.88
2022-11-11T01:06:26.681Z,1.88
2022-11-11T01:06:58.661Z,1.88
2022-11-11T01:07:30.863Z,1.88
2022-11-11T01:07:46.757Z,1.88
2022-11-11T01:08:18.619Z,1.88
2022-11-11T01:08:34.829Z,2.00
2022-11-11T01:09:06.464Z,1.88
2022-11-11T01:09:38.509Z,1.88
2022-11-11T01:10:10.814Z,2.00
2022-11-11T01:10:42.478Z,2.11
2022-11-11T01:11:14.761Z,2.11
2022-11-11T01:11:46.567Z,2.11
2022-11-11T01:12:03.121Z,2.22
2022-11-11T01:12:34.394Z,2.22
2022-11-11T01:13:18.638Z,2.11
2022-11-11T01:13:50.158Z,2.11
2022-11-11T01:14:22.394Z,2.11
2022-11-11T01:14:54.607Z,2.11
2022-11-11T01:15:26.702Z,2.11
2022-11-11T01:15:58.204Z,2.11
2022-11-11T01:16:30.307Z,2.00
2022-11-11T01:17:02.410Z,2.00
2022-11-11T01:17:34.500Z,2.00
2022-11-11T01:18:06.156Z,1.88
2022-11-11T01:18:38.211Z,1.88
2022-11-11T01:19:10.110Z,1.88
2022-11-11T01:19:42.142Z,1.88
2022-11-11T01:20:14.470Z,1.88
2022-11-11T01:20:46.316Z,2.11
2022-11-11T01:21:02.295Z,2.11
2022-11-11T01:21:46.065Z,2.11
2022-11-11T01:22:18.235Z,2.11
2022-11-11T01:22:49.921Z,2.00
2022-11-11T01:23:21.923Z,2.11
2022-11-11T01:23:54.091Z,2.11
2022-11-11T01:24:26.159Z,2.11
2022-11-11T01:24:57.760Z,2.11
2022-11-11T01:25:30.230Z,2.11
2022-11-11T01:25:46.181Z,2.11
2022-11-11T01:26:17.971Z,2.11
2022-11-11T01:26:33.945Z,2.11
2022-11-11T01:27:05.979Z,2.22
2022-11-11T01:27:37.808Z,2.22
2022-11-11T01:28:09.868Z,2.11
2022-11-11T01:28:41.730Z,2.11
2022-11-11T01:29:13.726Z,2.11
2022-11-11T01:29:45.717Z,2.00
2022-11-11T01:30:04.895Z,2.00
2022-11-11T01:30:33.657Z,2.00
2022-11-11T01:31:17.700Z,2.00
2022-11-11T01:31:49.602Z,1.88
2022-11-11T01:32:21.555Z,1.88
2022-11-11T01:32:53.556Z,1.77
2022-11-11T01:33:25.900Z,1.77
2022-11-11T01:33:57.358Z,1.77
2022-11-11T01:34:29.451Z,1.77
2022-11-11T01:34:45.898Z,1.77
2022-11-11T01:35:29.711Z,1.77
2022-11-11T01:36:01.749Z,1.72
2022-11-11T01:36:33.304Z,1.72
2022-11-11T01:37:05.548Z,1.72
2022-11-11T01:37:37.346Z,1.72
2022-11-11T01:38:09.431Z,1.72
2022-11-11T01:38:41.079Z,1.72
2022-11-11T01:39:13.355Z,1.72
2022-11-11T01:39:45.518Z,1.61
2022-11-11T01:40:17.431Z,1.72
2022-11-11T01:40:49.183Z,1.72
2022-11-11T01:41:21.099Z,1.72
2022-11-11T01:41:54.438Z,1.72
2022-11-11T01:42:25.479Z,1.72
2022-11-11T01:42:57.028Z,1.72
2022-11-11T01:43:29.521Z,1.72
2022-11-11T01:43:45.360Z,1.72
2022-11-11T01:44:16.958Z,1.72
2022-11-11T01:44:33.176Z,1.77
2022-11-11T01:45:06.894Z,1.77
2022-11-11T01:45:36.900Z,1.77
2022-11-11T01:46:08.983Z,1.77
2022-11-11T01:46:41.117Z,1.77
2022-11-11T01:47:12.773Z,1.88
2022-11-11T01:48:08.757Z,1.88
2022-11-11T01:48:34.106Z,1.88
2022-11-11T01:49:16.944Z,1.88
2022-11-11T01:49:48.947Z,1.88
2022-11-11T01:50:21.068Z,2.00
2022-11-11T01:50:53.017Z,2.00
2022-11-11T01:51:25.300Z,2.00
2022-11-11T01:51:56.772Z,2.00
2022-11-11T01:52:28.946Z,2.00
2022-11-11T01:52:45.320Z,2.00
2022-11-11T01:53:28.790Z,2.00
2022-11-11T01:54:00.611Z,2.00
2022-11-11T01:54:32.510Z,2.00
2022-11-11T01:55:05.684Z,1.88
2022-11-11T01:55:36.731Z,1.88
2022-11-11T01:56:08.784Z,1.88
2022-11-11T01:56:40.609Z,1.88
2022-11-11T01:57:12.581Z,1.88
2022-11-11T01:57:44.786Z,1.88
2022-11-11T01:58:16.661Z,1.88
2022-11-11T01:58:48.382Z,1.88
2022-11-11T01:59:20.326Z,1.88
2022-11-11T01:59:52.512Z,1.88
2022-11-11T02:00:25.094Z,1.88
2022-11-11T02:00:56.372Z,1.88
2022-11-11T02:01:28.488Z,1.77
2022-11-11T02:02:00.568Z,1.77
2022-11-11T02:02:32.460Z,1.77
2022-11-11T02:03:04.887Z,1.77
2022-11-11T02:03:36.091Z,1.72
2022-11-11T02:04:08.207Z,1.72
2022-11-11T02:04:40.257Z,1.72
2022-11-11T02:05:12.268Z,1.72
2022-11-11T02:05:44.558Z,1.72
2022-11-11T02:06:16.335Z,1.72
2022-11-11T02:06:48.223Z,1.72
2022-11-11T02:07:20.127Z,1.72
2022-11-11T02:07:52.198Z,1.61
2022-11-11T02:08:24.203Z,1.61
2022-11-11T02:08:56.062Z,1.61
2022-11-11T02:09:28.002Z,1.61
2022-11-11T02:09:44.386Z,1.61
2022-11-11T02:10:28.233Z,1.61
2022-11-11T02:10:59.984Z,1.61
2022-11-11T02:11:32.001Z,1.61
2022-11-11T02:12:04.861Z,1.61
2022-11-11T02:12:35.911Z,1.50
2022-11-11T02:13:08.080Z,1.50
2022-11-11T02:13:40.040Z,1.50
2022-11-11T02:14:11.808Z,1.50
2022-11-11T02:14:43.948Z,1.50
2022-11-11T02:15:17.585Z,1.50
2022-11-11T02:15:47.941Z,1.50
2022-11-11T02:16:19.818Z,1.50
2022-11-11T02:16:51.825Z,1.50
2022-11-11T02:17:23.757Z,1.50
2022-11-11T02:17:55.945Z,1.50
2022-11-11T02:18:27.529Z,1.50
2022-11-11T02:18:43.972Z,1.50
2022-11-11T02:19:15.768Z,1.50
2022-11-11T02:19:31.683Z,1.50
2022-11-11T02:20:04.797Z,1.50
2022-11-11T02:20:35.557Z,1.38
2022-11-11T02:21:07.483Z,1.38
2022-11-11T02:21:39.611Z,1.38
2022-11-11T02:22:11.455Z,1.38
2022-11-11T02:22:43.347Z,1.38
2022-11-11T02:22:59.745Z,1.38
2022-11-11T02:23:31.544Z,1.38
2022-11-11T02:24:15.883Z,1.38
2022-11-11T02:24:47.268Z,1.38
2022-11-11T02:25:19.651Z,1.38
2022-11-11T02:25:51.239Z,1.38
2022-11-11T02:26:23.334Z,1.50
2022-11-11T02:26:58.341Z,1.50
2022-11-11T02:27:27.110Z,1.50
2022-11-11T02:27:43.576Z,1.38
2022-11-11T02:28:27.322Z,1.38
2022-11-11T02:28:59.415Z,1.38
2022-11-11T02:29:31.161Z,1.38
2022-11-11T02:30:06.187Z,1.27
2022-11-11T02:30:35.479Z,1.27
2022-11-11T02:31:07.085Z,1.27
2022-11-11T02:31:39.020Z,1.22
2022-11-11T02:32:11.017Z,1.22
2022-11-11T02:32:43.129Z,1.22
2022-11-11T02:33:15.393Z,1.22
2022-11-11T02:33:47.046Z,1.22
2022-11-11T02:34:19.054Z,1.22
2022-11-11T02:34:51.042Z,1.22
2022-11-11T02:35:23.323Z,1.22
2022-11-11T02:35:55.012Z,1.22
2022-11-11T02:36:26.856Z,1.22
2022-11-11T02:36:59.171Z,1.22
2022-11-11T02:37:30.928Z,1.22
2022-11-11T02:38:03.203Z,1.22
2022-11-11T02:38:35.163Z,1.22
2022-11-11T02:39:06.708Z,1.22
2022-11-11T02:40:01.855Z,1.22
2022-11-11T02:40:11.241Z,1.22
2022-11-11T02:40:42.791Z,1.22
2022-11-11T02:40:59.255Z,1.22
2022-11-11T02:41:30.711Z,1.22
2022-11-11T02:42:15.111Z,1.22
2022-11-11T02:42:46.810Z,1.22
2022-11-11T02:43:18.507Z,1.22
2022-11-11T02:43:50.644Z,1.22
2022-11-11T02:44:22.661Z,1.22
2022-11-11T02:44:54.834Z,1.22
2022-11-11T02:45:26.748Z,1.22
2022-11-11T02:45:42.815Z,1.22
2022-11-11T02:46:26.478Z,1.22
2022-11-11T02:46:58.577Z,1.22
2022-11-11T02:47:30.546Z,1.22
2022-11-11T02:48:02.665Z,1.22
2022-11-11T02:48:34.490Z,1.22
2022-11-11T02:49:06.384Z,1.22
2022-11-11T02:49:38.582Z,1.27
2022-11-11T02:50:10.421Z,1.27
2022-11-11T02:50:42.404Z,1.27
2022-11-11T02:51:14.508Z,1.27
2022-11-11T02:51:46.355Z,1.38
2022-11-11T02:52:18.228Z,1.38
2022-11-11T02:52:50.425Z,1.38
2022-11-11T02:53:22.797Z,1.38
2022-11-11T02:53:54.313Z,1.38
2022-11-11T02:54:26.385Z,1.38
2022-11-11T02:54:42.200Z,1.38
2022-11-11T02:55:14.561Z,1.38
2022-11-11T02:55:30.146Z,1.38
2022-11-11T02:56:02.735Z,1.50
2022-11-11T02:56:33.997Z,1.50
2022-11-11T02:57:06.329Z,1.50
2022-11-11T02:57:38.000Z,1.50
2022-11-11T02:58:10.115Z,1.50
2022-11-11T02:58:41.850Z,1.50
2022-11-11T02:58:58.084Z,1.50
2022-11-11T02:59:29.957Z,1.50
2022-11-11T03:00:15.348Z,1.50
2022-11-11T03:00:46.362Z,1.50
2022-11-11T03:01:17.896Z,1.50
2022-11-11T03:01:50.050Z,1.50
2022-11-11T03:02:21.935Z,1.50
2022-11-11T03:02:54.135Z,1.38
2022-11-11T03:03:26.220Z,1.38
2022-11-11T03:03:41.967Z,1.38
2022-11-11T03:04:26.079Z,1.38
2022-11-11T03:04:57.652Z,1.38
2022-11-11T03:05:30.084Z,1.38
2022-11-11T03:06:01.921Z,1.38
2022-11-11T03:06:33.750Z,1.27
2022-11-11T03:07:06.221Z,1.27
2022-11-11T03:07:37.646Z,1.27
2022-11-11T03:08:09.694Z,1.27
2022-11-11T03:08:41.546Z,1.27
2022-11-11T03:09:13.889Z,1.27
2022-11-11T03:09:45.744Z,1.22
2022-11-11T03:10:18.067Z,1.22
2022-11-11T03:10:49.599Z,1.22
2022-11-11T03:11:21.628Z,1.22
2022-11-11T03:11:53.495Z,1.22
2022-11-11T03:12:25.636Z,1.22
2022-11-11T03:12:57.354Z,1.22
2022-11-11T03:13:29.618Z,1.22
2022-11-11T03:14:01.857Z,1.22
2022-11-11T03:14:33.145Z,1.22
2022-11-11T03:15:07.270Z,1.22
2022-11-11T03:15:37.271Z,1.22
2022-11-11T03:16:09.249Z,1.22
2022-11-11T03:16:41.434Z,1.22
2022-11-11T03:16:57.397Z,1.22
2022-11-11T03:17:29.313Z,1.11
2022-11-11T03:18:13.369Z,1.11
2022-11-11T03:18:45.352Z,1.11
2022-11-11T03:19:17.132Z,1.11
2022-11-11T03:19:49.088Z,1.11
2022-11-11T03:20:21.279Z,1.11
2022-11-11T03:20:52.952Z,1.11
2022-11-11T03:22:50.522Z,1.11
2022-11-11T03:22:57.016Z,1.11
2022-11-11T03:23:28.873Z,1.11
2022-11-11T03:24:00.858Z,1.11
2022-11-11T03:24:32.829Z,1.22
2022-11-11T03:25:05.590Z,1.22
2022-11-11T03:25:36.664Z,1.22
2022-11-11T03:26:08.773Z,1.22
2022-11-11T03:26:40.852Z,1.22
2022-11-11T03:27:12.810Z,1.22
2022-11-11T03:27:44.907Z,1.22
2022-11-11T03:28:16.667Z,1.22
2022-11-11T03:28:48.679Z,1.22
2022-11-11T03:29:20.702Z,1.22
2022-11-11T03:29:52.509Z,1.22
2022-11-11T03:30:25.202Z,1.22
2022-11-11T03:30:40.734Z,1.27
2022-11-11T03:31:12.634Z,1.27
2022-11-11T03:31:28.838Z,1.27
2022-11-11T03:32:00.464Z,1.27
2022-11-11T03:32:32.488Z,1.27
2022-11-11T03:33:04.969Z,1.27
2022-11-11T03:33:36.564Z,1.27
2022-11-11T03:34:08.346Z,1.27
2022-11-11T03:34:40.467Z,1.27
2022-11-11T03:34:56.489Z,1.27
2022-11-11T03:35:28.619Z,1.22
2022-11-11T03:36:12.423Z,1.22
2022-11-11T03:36:44.609Z,1.22
2022-11-11T03:37:16.293Z,1.22
2022-11-11T03:37:48.396Z,1.22
2022-11-11T03:38:20.454Z,1.27
2022-11-11T03:38:52.094Z,1.27
2022-11-11T03:39:24.259Z,1.27
2022-11-11T03:39:40.363Z,1.27
2022-11-11T03:40:24.576Z,1.27
2022-11-11T03:40:56.340Z,1.27
2022-11-11T03:41:28.053Z,1.27
2022-11-11T03:42:00.178Z,1.27
2022-11-11T03:42:32.097Z,1.38
2022-11-11T03:43:05.500Z,1.38
2022-11-11T03:43:36.121Z,1.38
2022-11-11T03:44:08.019Z,1.38
2022-11-11T03:44:40.056Z,1.38
2022-11-11T03:45:12.684Z,1.38
2022-11-11T03:45:44.341Z,1.38
2022-11-11T03:46:15.952Z,1.38
2022-11-11T03:46:47.978Z,1.38
2022-11-11T03:47:19.995Z,1.50
2022-11-11T03:47:51.903Z,1.50
2022-11-11T03:48:23.959Z,1.50
2022-11-11T03:48:39.935Z,1.50
2022-11-11T03:49:11.817Z,1.50
2022-11-11T03:49:27.858Z,1.50
2022-11-11T03:49:59.954Z,1.50
2022-11-11T03:50:32.002Z,1.50
2022-11-11T03:51:04.131Z,1.50
2022-11-11T03:51:35.799Z,1.50
2022-11-11T03:52:07.738Z,1.50
2022-11-11T03:52:39.622Z,1.50
2022-11-11T03:52:55.791Z,1.50
2022-11-11T03:53:27.642Z,1.50
2022-11-11T03:54:11.652Z,1.50
2022-11-11T03:54:43.395Z,1.50
2022-11-11T03:55:15.895Z,1.50
2022-11-11T03:55:47.497Z,1.50
2022-11-11T03:56:19.537Z,1.50
2022-11-11T03:56:51.644Z,1.50
2022-11-11T03:57:23.495Z,1.50
2022-11-11T03:57:39.740Z,1.38
2022-11-11T03:58:23.499Z,1.38
2022-11-11T03:58:55.716Z,1.38
2022-11-11T03:59:27.293Z,1.38
2022-11-11T03:59:59.329Z,1.38
2022-11-11T04:00:31.685Z,1.38
2022-11-11T04:01:04.021Z,1.38
2022-11-11T04:01:35.709Z,1.38
2022-11-11T04:02:07.244Z,1.38
2022-11-11T04:02:39.329Z,1.38
2022-11-11T04:03:11.349Z,1.38
2022-11-11T04:03:43.258Z,1.38
2022-11-11T04:04:15.523Z,1.38
2022-11-11T04:04:47.238Z,1.38
2022-11-11T04:05:19.500Z,1.27
2022-11-11T04:05:51.267Z,1.27
2022-11-11T04:06:23.078Z,1.27
2022-11-11T04:06:39.431Z,1.27
2022-11-11T04:07:11.033Z,1.27
2022-11-11T04:07:27.140Z,1.27
2022-11-11T04:07:59.124Z,1.27
2022-11-11T04:08:30.955Z,1.27
2022-11-11T04:09:03.624Z,1.38
2022-11-11T04:09:35.168Z,1.38
2022-11-11T04:10:06.966Z,1.38
2022-11-11T04:10:39.056Z,1.38
2022-11-11T04:10:55.324Z,1.38
2022-11-11T04:11:26.854Z,1.38
2022-11-11T04:12:10.995Z,1.38
2022-11-11T04:12:42.690Z,1.38
2022-11-11T04:13:15.184Z,1.38
2022-11-11T04:13:46.672Z,1.38
2022-11-11T04:14:18.808Z,1.38
2022-11-11T04:14:50.676Z,1.27
2022-11-11T04:15:23.065Z,1.27
2022-11-11T04:15:38.984Z,1.27
2022-11-11T04:16:22.652Z,1.27
2022-11-11T04:16:55.652Z,1.27
2022-11-11T04:17:27.177Z,1.27
2022-11-11T04:18:03.768Z,1.27
2022-11-11T04:18:30.802Z,1.27
2022-11-11T04:19:03.188Z,1.27
2022-11-11T04:19:34.677Z,1.22
2022-11-11T04:20:06.915Z,1.22
2022-11-11T04:20:38.600Z,1.22
2022-11-11T04:21:10.573Z,1.22
2022-11-11T04:21:42.449Z,1.22
2022-11-11T04:22:14.776Z,1.22
2022-11-11T04:22:46.491Z,1.22
2022-11-11T04:23:18.596Z,1.11
2022-11-11T04:23:50.347Z,1.11
2022-11-11T04:24:22.374Z,1.11
2022-11-11T04:24:38.651Z,1.11
2022-11-11T04:25:10.583Z,1.11
2022-11-11T04:25:26.328Z,1.11
2022-11-11T04:25:58.469Z,1.00
2022-11-11T04:26:30.362Z,1.00
2022-11-11T04:27:02.867Z,1.00
2022-11-11T04:27:34.371Z,1.00
2022-11-11T04:28:06.187Z,1.00
2022-11-11T04:28:38.226Z,1.00
2022-11-11T04:28:54.518Z,1.00
2022-11-11T04:29:26.204Z,1.00
2022-11-11T04:30:11.093Z,1.00
2022-11-11T04:30:41.974Z,1.00
2022-11-11T04:31:14.408Z,1.00
2022-11-11T04:31:46.251Z,.88
2022-11-11T04:32:18.147Z,.88
2022-11-11T04:32:49.835Z,.88
2022-11-11T04:33:06.248Z,.88
2022-11-11T04:33:37.974Z,.88
2022-11-11T04:33:54.145Z,.88
2022-11-11T04:34:26.046Z,.88
2022-11-11T04:34:57.829Z,.88
2022-11-11T04:35:30.143Z,.88
2022-11-11T04:36:02.335Z,.77
2022-11-11T04:36:33.748Z,.72
2022-11-11T04:37:05.962Z,.72
2022-11-11T04:37:37.820Z,.72
2022-11-11T04:38:09.886Z,.72
2022-11-11T04:38:41.657Z,.61
2022-11-11T04:39:13.761Z,.61
2022-11-11T04:39:46.064Z,.61
2022-11-11T04:40:17.995Z,.61
2022-11-11T04:40:49.591Z,.61
2022-11-11T04:41:21.606Z,.61
2022-11-11T04:42:07.632Z,.50
2022-11-11T04:42:25.837Z,.50
2022-11-11T04:42:57.480Z,.50
2022-11-11T04:43:29.664Z,.50
2022-11-11T04:44:01.700Z,.50
2022-11-11T04:44:33.718Z,.50
2022-11-11T04:45:07.112Z,.50
2022-11-11T04:45:37.430Z,.50
2022-11-11T04:46:09.654Z,.50
2022-11-11T04:46:41.426Z,.50
2022-11-11T04:47:13.247Z,.50
2022-11-11T04:47:45.839Z,.50
2022-11-11T04:48:17.372Z,.50
2022-11-11T04:48:49.409Z,.61
2022-11-11T04:49:21.166Z,.61
2022-11-11T04:49:37.388Z,.61
2022-11-11T04:50:21.615Z,.61
2022-11-11T04:50:53.320Z,.61
2022-11-11T04:51:25.623Z,.61
2022-11-11T04:51:57.099Z,.61
2022-11-11T04:52:29.225Z,.61
2022-11-11T04:53:01.260Z,.61
2022-11-11T04:53:33.244Z,.61
2022-11-11T04:54:05.506Z,.61
2022-11-11T04:54:37.084Z,.72
2022-11-11T04:55:09.439Z,.72
2022-11-11T04:55:41.149Z,.72
2022-11-11T04:56:12.957Z,.61
2022-11-11T04:56:45.282Z,.61
2022-11-11T04:57:16.992Z,.61
2022-11-11T04:57:49.050Z,.61
2022-11-11T04:58:20.850Z,.61
2022-11-11T04:58:52.922Z,.61
2022-11-11T04:59:25.222Z,.61
2022-11-11T04:59:56.933Z,.61
2022-11-11T05:00:31.654Z,.61
2022-11-11T05:01:00.966Z,.61
2022-11-11T05:01:32.759Z,.61
2022-11-11T05:02:05.386Z,.61
2022-11-11T05:02:36.767Z,.72
2022-11-11T05:02:52.740Z,.72
2022-11-11T05:03:25.538Z,.72
2022-11-11T05:04:08.894Z,.72
2022-11-11T05:04:40.669Z,.72
2022-11-11T05:05:12.742Z,.72
2022-11-11T05:05:44.783Z,.72
2022-11-11T05:06:16.555Z,.72
2022-11-11T05:06:48.744Z,.72
2022-11-11T05:07:20.595Z,.72
2022-11-11T05:07:52.485Z,.72
2022-11-11T05:08:24.744Z,.72
2022-11-11T05:08:56.776Z,.72
2022-11-11T05:09:28.356Z,.72
2022-11-11T05:10:02.645Z,.72
2022-11-11T05:10:32.468Z,.72
2022-11-11T05:11:05.026Z,.72
2022-11-11T05:11:36.455Z,.72
2022-11-11T05:11:52.333Z,.72
2022-11-11T05:12:36.379Z,.72
2022-11-11T05:12:52.531Z,.72
2022-11-11T05:13:36.391Z,.72
2022-11-11T05:14:08.376Z,.72
2022-11-11T05:14:40.122Z,.72
2022-11-11T05:15:13.125Z,.72
2022-11-11T05:15:44.559Z,.77
2022-11-11T05:16:16.266Z,.77
2022-11-11T05:16:48.090Z,.77
2022-11-11T05:17:20.051Z,.88
2022-11-11T05:17:36.556Z,.88
2022-11-11T05:18:08.082Z,.88
2022-11-11T05:18:24.476Z,.88
2022-11-11T05:18:56.064Z,.77
2022-11-11T05:19:28.100Z,.77
2022-11-11T05:20:00.127Z,.77
2022-11-11T05:20:36.158Z,.77
2022-11-11T05:21:04.704Z,.77
2022-11-11T05:21:36.116Z,.77
2022-11-11T05:21:52.168Z,.77
2022-11-11T05:22:24.140Z,.77
2022-11-11T05:23:07.921Z,.77
2022-11-11T05:23:39.828Z,.77
2022-11-11T05:24:11.768Z,.77
2022-11-11T05:24:43.884Z,.77
2022-11-11T05:25:16.129Z,.77
2022-11-11T05:25:47.627Z,.77
2022-11-11T05:26:19.732Z,.77
2022-11-11T05:26:36.092Z,.77
2022-11-11T05:27:19.732Z,.72
2022-11-11T05:27:51.771Z,.72
2022-11-11T05:28:23.758Z,.77
2022-11-11T05:28:55.816Z,.77
2022-11-11T05:29:27.750Z,.77
2022-11-11T05:29:59.772Z,.77
2022-11-11T05:30:31.875Z,.77
2022-11-11T05:31:04.211Z,.77
2022-11-11T05:31:35.692Z,.77
2022-11-11T05:32:07.644Z,.77
2022-11-11T05:32:39.681Z,.77
2022-11-11T05:33:11.471Z,.77
2022-11-11T05:33:43.500Z,.77
2022-11-11T05:34:15.855Z,.77
2022-11-11T05:34:47.301Z,.77
2022-11-11T05:35:19.743Z,.77
2022-11-11T05:35:35.711Z,.77
2022-11-11T05:36:07.467Z,.72
2022-11-11T05:36:23.493Z,.72
2022-11-11T05:36:55.679Z,.72
2022-11-11T05:37:27.291Z,.72
2022-11-11T05:37:59.329Z,.72
2022-11-11T05:38:31.487Z,.72
2022-11-11T05:39:03.942Z,.72
2022-11-11T05:39:35.342Z,.72
2022-11-11T05:39:51.391Z,.72
2022-11-11T05:40:23.270Z,.72
2022-11-11T05:41:07.275Z,.72
2022-11-11T05:41:39.048Z,.72
2022-11-11T05:42:11.006Z,.61
2022-11-11T05:42:47.353Z,.61
2022-11-11T05:43:15.359Z,.61
2022-11-11T05:43:46.841Z,.61
2022-11-11T05:44:19.028Z,.61
2022-11-11T05:44:35.225Z,.61
2022-11-11T05:45:19.424Z,.61
2022-11-11T05:45:51.035Z,.61
2022-11-11T05:46:22.837Z,.61
2022-11-11T05:46:55.470Z,.61
2022-11-11T05:47:26.969Z,.61
2022-11-11T05:47:59.027Z,.61
2022-11-11T05:48:30.885Z,.61
2022-11-11T05:49:03.877Z,.61
2022-11-11T05:49:35.135Z,.61
2022-11-11T05:50:07.163Z,.61
2022-11-11T05:50:38.850Z,.61
2022-11-11T05:51:10.741Z,.61
2022-11-11T05:51:42.881Z,.61
2022-11-11T05:52:15.048Z,.61
2022-11-11T05:52:46.673Z,.61
2022-11-11T05:53:18.741Z,.50
2022-11-11T05:53:35.058Z,.50
2022-11-11T05:54:06.616Z,.50
2022-11-11T05:54:22.663Z,.50
2022-11-11T05:54:54.879Z,.50
2022-11-11T05:55:26.713Z,.50
2022-11-11T05:55:58.742Z,.50
2022-11-11T05:56:30.728Z,.50
2022-11-11T05:57:03.440Z,.50
2022-11-11T05:57:34.641Z,.50
2022-11-11T05:57:50.494Z,.50
2022-11-11T05:58:22.351Z,.50
2022-11-11T05:59:06.477Z,.50
2022-11-11T05:59:38.274Z,.50
2022-11-11T06:00:14.088Z,.50
2022-11-11T06:00:42.298Z,.50
2022-11-11T06:01:14.532Z,.50
2022-11-11T06:01:46.339Z,.38
2022-11-11T06:02:18.265Z,.38
2022-11-11T06:02:34.544Z,.38
2022-11-11T06:03:18.386Z,.38
2022-11-11T06:03:50.236Z,.38
2022-11-11T06:04:22.161Z,.27
2022-11-11T06:04:54.511Z,.27
2022-11-11T06:05:26.474Z,.27
2022-11-11T06:05:58.288Z,.27
2022-11-11T06:06:30.133Z,.22
2022-11-11T06:07:02.485Z,.22
2022-11-11T06:07:34.177Z,.22
2022-11-11T06:08:06.213Z,.22
2022-11-11T06:08:37.966Z,.22
2022-11-11T06:09:10.045Z,.22
2022-11-11T06:09:41.930Z,.22
2022-11-11T06:10:14.400Z,.22
2022-11-11T06:10:46.047Z,.22
2022-11-11T06:11:17.819Z,.11
2022-11-11T06:11:49.888Z,.11
2022-11-11T06:12:21.875Z,.22
2022-11-11T06:12:53.776Z,.22
2022-11-11T06:13:26.688Z,.22
2022-11-11T06:13:57.808Z,.22
2022-11-11T06:14:29.625Z,.22
2022-11-11T06:15:04.667Z,.22
2022-11-11T06:15:33.747Z,.22
2022-11-11T06:16:06.051Z,.22
2022-11-11T06:16:37.846Z,.22
2022-11-11T06:17:09.563Z,.22
2022-11-11T06:17:41.614Z,.22
2022-11-11T06:18:13.723Z,.22
2022-11-11T06:18:45.852Z,.22
2022-11-11T06:19:17.380Z,.27
2022-11-11T06:19:33.737Z,.27
2022-11-11T06:20:22.786Z,.27
2022-11-11T06:20:49.614Z,.27
2022-11-11T06:21:21.506Z,.27
2022-11-11T06:21:53.336Z,.27
2022-11-11T06:22:25.752Z,.27
2022-11-11T06:22:57.433Z,.27
2022-11-11T06:23:29.193Z,.27
2022-11-11T06:24:01.455Z,.27
2022-11-11T06:24:33.401Z,.27
2022-11-11T06:25:05.865Z,.22
2022-11-11T06:25:37.535Z,.22
2022-11-11T06:26:09.286Z,.22
2022-11-11T06:26:41.118Z,.27
2022-11-11T06:27:13.260Z,.27
2022-11-11T06:27:45.427Z,.27
2022-11-11T06:28:17.383Z,.27
2022-11-11T06:28:33.323Z,.27
2022-11-11T06:29:05.609Z,.27
2022-11-11T06:29:21.358Z,.27
2022-11-11T06:30:03.265Z,.27
2022-11-11T06:30:48.125Z,.27
2022-11-11T06:30:57.332Z,.38
2022-11-11T06:31:29.297Z,.38
2022-11-11T06:32:01.565Z,.38
2022-11-11T06:32:32.984Z,.38
2022-11-11T06:32:49.374Z,.50
2022-11-11T06:33:20.962Z,.50
2022-11-11T06:34:05.768Z,.50
2022-11-11T06:34:37.140Z,.50
2022-11-11T06:35:09.514Z,.50
2022-11-11T06:35:41.282Z,.50
2022-11-11T06:36:13.094Z,.50
2022-11-11T06:36:45.137Z,.50
2022-11-11T06:37:16.829Z,.50
2022-11-11T06:37:33.090Z,.50
2022-11-11T06:38:16.901Z,.61
2022-11-11T06:38:48.958Z,.61
2022-11-11T06:39:20.964Z,.61
2022-11-11T06:39:52.852Z,.61
2022-11-11T06:40:25.412Z,.61
2022-11-11T06:40:56.828Z,.61
2022-11-11T06:41:28.931Z,.61
2022-11-11T06:42:00.867Z,.61
2022-11-11T06:42:32.777Z,.72
2022-11-11T06:43:05.519Z,.72
2022-11-11T06:43:36.820Z,.72
2022-11-11T06:44:08.684Z,.72
2022-11-11T06:44:40.756Z,.72
2022-11-11T06:45:13.398Z,.72
2022-11-11T06:45:44.853Z,.61
2022-11-11T06:46:18.553Z,.61
2022-11-11T06:46:32.754Z,.61
2022-11-11T06:47:05.503Z,.61
2022-11-11T06:47:20.574Z,.61
2022-11-11T06:47:52.870Z,.61
2022-11-11T06:48:24.891Z,.61
2022-11-11T06:48:56.507Z,.61
2022-11-11T06:49:28.548Z,.61
2022-11-11T06:50:02.301Z,.61
2022-11-11T06:50:32.509Z,.61
2022-11-11T06:50:48.783Z,.61
2022-11-11T06:51:20.422Z,.72
2022-11-11T06:52:05.106Z,.72
2022-11-11T06:52:36.496Z,.72
2022-11-11T06:53:08.363Z,.72
2022-11-11T06:53:40.313Z,.72
2022-11-11T06:54:12.282Z,.72
2022-11-11T06:54:44.480Z,.72
2022-11-11T06:55:18.626Z,.72
2022-11-11T06:55:33.969Z,.72
2022-11-11T06:56:16.397Z,.72
2022-11-11T06:56:48.259Z,.77
2022-11-11T06:57:20.309Z,.77
2022-11-11T06:57:52.091Z,.77
2022-11-11T06:58:08.328Z,.77
2022-11-11T06:58:40.074Z,.77
2022-11-11T06:59:24.495Z,.77
2022-11-11T06:59:56.227Z,.88
2022-11-11T07:00:28.306Z,.88
2022-11-11T07:01:00.101Z,.88